Flight Track Log - Related Links

Times and Time Zones

All times are in EDT time to prevent confusion due to time zone crossing. See the N201LH flight status page for this flight to view local times or setup timezone preferences in your user account.

Time Position Orientation Groundspeed Altitude Reporting Facility
EDT Latitude Longitude Course Direction KTS MPH feet Rate Location/Type
Sat 11:31:00 AM 43.3991 -83.4900 157° South  Level FlightAware
Sat 11:32:00 AM 43.3687 -83.4596 144° Southeast  Level Estimated
Sat 11:33:00 AM 43.3383 -83.4294 144° Southeast  Level Estimated
Sat 11:34:00 AM 43.3079 -83.3991 144° Southeast  Level Estimated
Sat 11:35:00 AM 43.2774 -83.3689 144° Southeast  Level Estimated
Sat 11:36:00 AM 43.2470 -83.3387 144° Southeast  Level Estimated
Sat 11:37:00 AM 43.2165 -83.3085 144° Southeast  Level Estimated
Sat 11:38:00 AM 43.1861 -83.2784 144° Southeast  Level Estimated
Sat 11:39:00 AM 43.1556 -83.2483 144° Southeast  Level Estimated
Sat 11:39:03 AM 43.0236 -83.4997 144° Southeast 136 157 5,000  Level Cleveland Center
Sat 11:40:00 AM 43.1251 -83.2182 144° Southeast  Level Estimated
Sat 11:40:16 AM 42.9828 -83.4639 147° Southeast 135 155 5,000  Level Cleveland Center
Sat 11:41:00 AM 43.0946 -83.1882 144° Southeast  Level Estimated
Sat 11:41:17 AM 42.9522 -83.4397 150° Southeast 135 155 5,000  Level Cleveland Center
Sat 11:42:00 AM 43.0642 -83.1582 144° Southeast  Level Estimated
Sat 11:42:42 AM 42.9094 -83.3981 144° Southeast 136 157 5,000  Level Cleveland Center
Sat 11:43:00 AM 43.0336 -83.1282 144° Southeast  Level Estimated
Sat 11:43:42 AM 42.8744 -83.3711 151° Southeast 135 155 5,000  Level Cleveland Center
Sat 11:44:00 AM 43.0031 -83.0983 144° Southeast  Level Estimated
Sat 11:44:19 AM 42.8561 -83.3531 144° Southeast 135 155 5,000  Level Cleveland Center
Sat 11:45:20 AM 42.8256 -83.3264 147° Southeast 133 153 5,000  Level Cleveland Center
Sat 11:46:15 AM 42.7969 -83.2997 146° Southeast 133 153 5,000  Level Cleveland Center
Sat 11:47:45 AM 42.7500 -83.2608 149° Southeast 134 154 5,000  Level Cleveland Center
Sat 11:48:46 AM 42.7172 -83.2339 149° Southeast 136 157 5,000  Level Cleveland Center
Sat 11:49:17 AM 42.7031 -83.2222 149° Southeast 134 154 5,000  Level Cleveland Center
Sat 11:50:41 AM 42.6558 -83.1833 149° Southeast 133 153 5,000  Level Cleveland Center
Sat 11:51:18 AM 42.6375 -83.1658 145° Southeast 135 155 5,000  Level Cleveland Center
Sat 11:52:25 AM 42.6028 -83.1303 143° Southeast 134 154 5,000  Level Cleveland Center
Sat 11:53:32 AM 42.5639 -83.1006 151° Southeast 138 159 5,000  Level Cleveland Center
Sat 11:54:33 AM 42.5333 -83.0769 150° Southeast 138 159 5,000  Level Cleveland Center
Sat 11:55:33 AM 42.5028 -83.0447 142° Southeast 137 158 5,000  Level Cleveland Center
Sat 11:56:28 AM 42.4739 -83.0211 149° Southeast 134 154 5,000  Level Cleveland Center
Sat 11:57:29 AM 42.4392 -82.9944 150° Southeast 132 152 5,000  Level Cleveland Center
Sat 11:58:30 AM 42.4083 -82.9650 145° Southeast 133 153 5,000  Level Cleveland Center
Sat 11:59:31 AM 42.3756 -82.9386 149° Southeast 133 153 5,000  Level Cleveland Center
Sat 12:00:31 PM 42.3447 -82.9150 150° Southeast 131 151 5,000  Level Cleveland Center
Sat 12:01:32 PM 42.3142 -82.8886 147° Southeast 133 153 5,000  Level Cleveland Center
Sat 12:02:33 PM 42.2814 -82.8619 149° Southeast 133 153 5,000  Level Cleveland Center
Sat 12:03:40 PM 42.2464 -82.8272 144° Southeast 134 154 5,000  Level Cleveland Center
Sat 12:04:47 PM 42.2244 -82.7842 125° Southeast 135 155 5,000  Level Cleveland Center
Sat 12:05:48 PM 42.1981 -82.7469 134° Southeast 134 154 5,000  Level Cleveland Center
Sat 12:06:24 PM 42.1839 -82.7297 138° Southeast 134 154 5,000  Level Cleveland Center
Sat 12:07:24 PM 42.1594 -82.6897 129° Southeast 141 162 5,000  Level Cleveland Center
Sat 12:08:24 PM 42.1331 -82.6494 131° Southeast 141 162 5,000  Level Cleveland Center
Sat 12:09:24 PM 42.1089 -82.6094 129° Southeast 141 162 5,000  Level Cleveland Center
Sat 12:09:39 PM 42.0986 -82.5981 141° Southeast 137 158 5,000  Level Cleveland Center
Sat 12:10:24 PM 42.0844 -82.5697 124° Southeast 141 162 5,000  Level Cleveland Center
Sat 12:10:52 PM 42.0703 -82.5553 143° Southeast 136 157 5,000  Level Cleveland Center
Sat 12:11:24 PM 42.0622 -82.5325 115° Southeast 141 162 5,000  Level Cleveland Center
Sat 12:11:52 PM 42.0458 -82.5125 138° Southeast 135 155 5,000  Level Cleveland Center
Sat 12:12:24 PM 42.0378 -82.4928 119° Southeast 141 162 5,000  Level Cleveland Center
Sat 12:12:47 PM 42.0278 -82.4783 133° Southeast 134 154 5,000  Level Cleveland Center
Sat 12:13:24 PM 42.0114 -82.4583 138° Southeast 141 162 5,000  Level Cleveland Center
Sat 12:13:53 PM 41.9972 -82.4328 127° Southeast 134 154 5,000  Level Cleveland Center
Sat 12:14:24 PM 41.9911 -82.4158 116° Southeast 136 157 5,000  Level Cleveland Center
Sat 12:14:54 PM 41.9706 -82.3956 144° Southeast 136 157 5,000  Level Cleveland Center
Sat 12:15:24 PM 41.9606 -82.3814 134° Southeast 136 157 5,000  Level Cleveland Center
Sat 12:15:55 PM 41.9461 -82.3614 134° Southeast 140 161 5,000  Level Cleveland Center
Sat 12:16:24 PM 41.9361 -82.3417 124° Southeast 136 157 5,000  Level Cleveland Center
Sat 12:16:55 PM 41.9217 -82.3217 134° Southeast 138 159 5,000  Level Cleveland Center
Sat 12:17:24 PM 41.9136 -82.2992 116° Southeast 141 162 5,000  Level Cleveland Center
Sat 12:17:50 PM 41.9014 -82.2822 134° Southeast 140 161 5,000  Level Cleveland Center
Sat 12:18:24 PM 41.8872 -82.2650 138° Southeast 141 162 5,000  Level Cleveland Center
Sat 12:18:50 PM 41.8769 -82.2425 122° Southeast 137 158 5,000  Level Cleveland Center
Sat 12:19:24 PM 41.8608 -82.2197 134° Southeast 141 162 5,000  Level Cleveland Center
Sat 12:19:51 PM 41.8483 -82.2056 140° Southeast 139 160 5,000 -205 Level Cleveland Center
Sat 12:20:52 PM 41.8219 -82.1658 132° Southeast 148 170 4,700 -347 Descending Cleveland Center
Sat 12:21:52 PM 41.7933 -82.1206 130° Southeast 158 182 4,300 -397 Descending Cleveland Center
Sat 12:22:53 PM 41.7667 -82.0753 128° Southeast 155 178 3,900 -516 Descending Cleveland Center
Sat 12:24:00 PM 41.7361 -82.0244 129° Southeast 151 174 3,200 -406 Descending Cleveland Center
Sat 12:25:06 PM 41.7056 -81.9822 134° Southeast 147 169 3,000 -90 Descending Cleveland Center
Sat 12:26:13 PM 41.6789 -81.9397 130° Southeast 133 153 3,000  Level Cleveland Center
Sat 12:27:01 PM 41.6625 -81.9089 125° Southeast 132 152 3,000  Level Cleveland Center
Sat 12:28:02 PM 41.6381 -81.8694 130° Southeast 138 159 3,000 -94 Level Cleveland Center
Sat 12:29:09 PM 41.6072 -81.8244 132° Southeast 139 160 2,800 -347 Descending Cleveland Center
Sat 12:30:03 PM 41.5867 -81.7908 129° Southeast 137 158 2,300 -567 Descending Cleveland Center
Sat 12:31:16 PM 41.5600 -81.7486 130° Southeast 114 131 1,600 -541 Descending Cleveland Center
Sat 12:32:05 PM 41.5414 -81.7289 142° Southeast 109 125 1,200 -365 Descending Cleveland Center
Sat 12:33:11 PM 41.5167 -81.7089 149° Southeast 81 93 900 -273 Descending Cleveland Center
Sat 12:35:00 PM 41.5175 -81.6833 114° Southeast  Level Estimated

Login

Don't have an account? Register now (free) for customized features, flight alerts, and more!